Capetown, CA

2:54 AM PST on January 23, 2017 (GMT -0800)
5th and Pixley | | Change Station
Active Advisory: Hazardous Seas Warning

Elev 56 ft 40.58 °N, 124.27 °W | Updated 34 seconds ago

Overcast
Overcast
40.1 °F
Feels Like 40 °F
N
1.1
Wind Variable Wind from SSW

Today
High -- | Low -- °F
--% Chance of Precip.
Yesterday
High -- | Low -- °F
Precip. -- in
Pressure 29.70 in
Visibility 10.0 miles
Clouds Scattered Clouds 2700 ft
Mostly Cloudy 3800 ft
Overcast 7000 ft
Windchill 40 °F
Dew Point 40 °F
Humidity 99%
Rainfall 0.09 in
Snow Depth Not available.
7:33 AM 5:24 PM
Waning Crescent, 19% visible
METAR KFOT 231035Z AUTO 13008KT 10SM SCT027 BKN038 OVC070 04/03 A2970 RMK AO1
Pressure 29.70 in
Visibility 10.0 miles
Clouds Scattered Clouds 2700 ft
Mostly Cloudy 3800 ft
Overcast 7000 ft
Windchill 40 °F
Dew Point 40 °F
Humidity 99%
Rainfall 0.09 in
Snow Depth Not available.
7:33 AM 5:24 PM
Waning Crescent, 19% visible
METAR KFOT 231035Z AUTO 13008KT 10SM SCT027 BKN038 OVC070 04/03 A2970 RMK AO1

Get Your Daily Forecast Email!

Thanks for signing up!

Be on the lookout for a verification email in your inbox.

You'll start receiving the daily forecast at 8 AM.

×

10-Day Weather Forecast

Almanac

Astronomy

Jan. 23, 2017 Rise Set
Actual Time
Civil Twilight
Nautical Twilight
Astronomical Twilight
Moon
Length of Visible Light
Length of Day
Tomorrow will be .
, % of the Moon is Illuminated

Today's Extremes

State Highs State Lows

Community

WunderPhotos

Upload Photos

1,962,540 photos uploaded!

WunderBlog® & News

Nearby

Air Quality

  Air Quality AQ Index Pollutant
Not available.

Snow Depth

Station Depth Elevation

Earthquake Activity

City Distance Mag. Time & Date
Minimum magnitude displayed is 2.5.

Coastal Water Temperatures

Place Temperature

Stations

Nearby Weather Stations

Station Location Temp. Windchill Dew Point Humidity Wind Precip. Elev Updated Type
                   

Watches & Warnings

Hazardous Seas Warning
Issued: 2:21 AM PST Jan. 23, 2017 – National Weather Service

... Hazardous seas warning now in effect until 4 am PST Tuesday...

* winds... SW 10 to 20 kt with gusts to 30 kt. Winds will subside
this evening.

* Waves... seas will remain elevated through tonight as a westerly
swell persists. Wave heights will be around 15 to 22 feet with
wave periods of around 15 seconds.

Precautionary/preparedness actions...

A hazardous seas warning means hazardous sea conditions are
imminent or occurring. Recreational boaters should remain in
port... or take shelter until waves subside. Commercial vessels
should prepare for rough seas and consider remaining in port or
taking shelter in port until hazardous seas subside.